sensor_id;sensor_type;location;lat;lon;timestamp;temperature;humidity
65559;DHT22;52203;51.998;5.140;2023-05-10T00:01:27;8.52;118.99
65559;DHT22;52203;51.998;5.140;2023-05-10T00:03:53;8.55;118.99
65559;DHT22;52203;51.998;5.140;2023-05-10T00:06:18;8.57;118.99
65559;DHT22;52203;51.998;5.140;2023-05-10T00:08:45;8.58;118.99
65559;DHT22;52203;51.998;5.140;2023-05-10T00:11:10;8.60;118.99
65559;DHT22;52203;51.998;5.140;2023-05-10T00:13:36;8.62;118.99
65559;DHT22;52203;51.998;5.140;2023-05-10T00:16:02;8.63;118.99
65559;DHT22;52203;51.998;5.140;2023-05-10T00:18:27;8.63;118.99
65559;DHT22;52203;51.998;5.140;2023-05-10T00:20:53;8.65;118.99
65559;DHT22;52203;51.998;5.140;2023-05-10T00:23:18;8.63;118.99
65559;DHT22;52203;51.998;5.140;2023-05-10T00:25:44;8.60;118.99
65559;DHT22;52203;51.998;5.140;2023-05-10T00:28:09;8.59;118.99
65559;DHT22;52203;51.998;5.140;2023-05-10T00:30:35;8.56;118.99
65559;DHT22;52203;51.998;5.140;2023-05-10T00:33:00;8.52;118.99
65559;DHT22;52203;51.998;5.140;2023-05-10T00:35:26;8.47;118.99
65559;DHT22;52203;51.998;5.140;2023-05-10T00:37:51;8.44;118.99
65559;DHT22;52203;51.998;5.140;2023-05-10T00:40:17;8.41;118.99
65559;DHT22;52203;51.998;5.140;2023-05-10T00:42:43;8.38;118.99
65559;DHT22;52203;51.998;5.140;2023-05-10T00:45:08;8.34;118.99
65559;DHT22;52203;51.998;5.140;2023-05-10T00:47:34;8.33;118.99
65559;DHT22;52203;51.998;5.140;2023-05-10T00:50:00;8.30;118.99
65559;DHT22;52203;51.998;5.140;2023-05-10T00:52:27;8.28;118.99
65559;DHT22;52203;51.998;5.140;2023-05-10T00:54:53;8.26;118.99
65559;DHT22;52203;51.998;5.140;2023-05-10T00:57:20;8.23;118.99
65559;DHT22;52203;51.998;5.140;2023-05-10T00:59:46;8.22;118.99
65559;DHT22;52203;51.998;5.140;2023-05-10T01:02:11;8.23;118.99
65559;DHT22;52203;51.998;5.140;2023-05-10T01:04:38;8.22;118.99
65559;DHT22;52203;51.998;5.140;2023-05-10T01:07:04;8.23;118.99
65559;DHT22;52203;51.998;5.140;2023-05-10T01:09:31;8.26;118.99
65559;DHT22;52203;51.998;5.140;2023-05-10T01:11:57;8.27;118.99
65559;DHT22;52203;51.998;5.140;2023-05-10T01:14:23;8.27;118.99
65559;DHT22;52203;51.998;5.140;2023-05-10T01:16:50;8.28;118.99
65559;DHT22;52203;51.998;5.140;2023-05-10T01:19:27;8.34;118.99
65559;DHT22;52203;51.998;5.140;2023-05-10T01:38:26;8.41;118.99
65559;DHT22;52203;51.998;5.140;2023-05-10T01:41:18;8.41;118.99
65559;DHT22;52203;51.998;5.140;2023-05-10T01:44:20;8.37;118.99
65559;DHT22;52203;51.998;5.140;2023-05-10T01:46:43;8.34;118.99
65559;DHT22;52203;51.998;5.140;2023-05-10T01:49:39;8.31;118.99
65559;DHT22;52203;51.998;5.140;2023-05-10T01:52:12;8.32;118.99
65559;DHT22;52203;51.998;5.140;2023-05-10T01:54:50;8.31;118.99
65559;DHT22;52203;51.998;5.140;2023-05-10T01:57:20;8.30;118.99
65559;DHT22;52203;51.998;5.140;2023-05-10T01:59:49;8.30;118.99
65559;DHT22;52203;51.998;5.140;2023-05-10T02:02:17;8.30;118.99
65559;DHT22;52203;51.998;5.140;2023-05-10T02:04:44;8.30;118.99
65559;DHT22;52203;51.998;5.140;2023-05-10T02:07:11;8.30;118.99
65559;DHT22;52203;51.998;5.140;2023-05-10T02:09:38;8.30;118.99
65559;DHT22;52203;51.998;5.140;2023-05-10T02:12:05;8.33;118.99
65559;DHT22;52203;51.998;5.140;2023-05-10T02:14:34;8.31;118.99
65559;DHT22;52203;51.998;5.140;2023-05-10T02:17:02;8.30;118.99
65559;DHT22;52203;51.998;5.140;2023-05-10T02:19:31;8.29;118.99
65559;DHT22;52203;51.998;5.140;2023-05-10T02:21:59;8.31;118.99
65559;DHT22;52203;51.998;5.140;2023-05-10T02:24:25;8.31;118.99
65559;DHT22;52203;51.998;5.140;2023-05-10T02:26:53;8.32;118.99
65559;DHT22;52203;51.998;5.140;2023-05-10T02:29:20;8.32;118.99
65559;DHT22;52203;51.998;5.140;2023-05-10T02:31:49;8.31;118.99
65559;DHT22;52203;51.998;5.140;2023-05-10T02:34:16;8.31;118.99
65559;DHT22;52203;51.998;5.140;2023-05-10T02:36:43;8.31;118.99
65559;DHT22;52203;51.998;5.140;2023-05-10T02:39:09;8.33;118.99
65559;DHT22;52203;51.998;5.140;2023-05-10T02:41:39;8.34;118.99
65559;DHT22;52203;51.998;5.140;2023-05-10T02:44:07;8.34;118.99
65559;DHT22;52203;51.998;5.140;2023-05-10T02:46:33;8.34;118.99
65559;DHT22;52203;51.998;5.140;2023-05-10T02:49:00;8.35;118.99
65559;DHT22;52203;51.998;5.140;2023-05-10T02:51:29;8.36;118.99
65559;DHT22;52203;51.998;5.140;2023-05-10T02:53:57;8.36;118.99
65559;DHT22;52203;51.998;5.140;2023-05-10T02:56:28;8.36;118.99
65559;DHT22;52203;51.998;5.140;2023-05-10T02:58:55;8.38;118.99
65559;DHT22;52203;51.998;5.140;2023-05-10T03:01:21;8.37;118.99
65559;DHT22;52203;51.998;5.140;2023-05-10T03:03:47;8.38;118.99
65559;DHT22;52203;51.998;5.140;2023-05-10T03:06:12;8.39;118.99
65559;DHT22;52203;51.998;5.140;2023-05-10T03:08:38;8.41;118.99
65559;DHT22;52203;51.998;5.140;2023-05-10T03:16:47;8.43;118.99
65559;DHT22;52203;51.998;5.140;2023-05-10T03:19:26;8.43;118.99
65559;DHT22;52203;51.998;5.140;2023-05-10T03:21:53;8.44;118.99
65559;DHT22;52203;51.998;5.140;2023-05-10T03:24:22;8.45;118.99
65559;DHT22;52203;51.998;5.140;2023-05-10T03:26:49;8.46;118.99
65559;DHT22;52203;51.998;5.140;2023-05-10T03:29:15;8.47;118.99
65559;DHT22;52203;51.998;5.140;2023-05-10T03:31:42;8.48;118.99
65559;DHT22;52203;51.998;5.140;2023-05-10T03:34:08;8.49;118.99
65559;DHT22;52203;51.998;5.140;2023-05-10T03:36:33;8.48;118.99
65559;DHT22;52203;51.998;5.140;2023-05-10T03:38:59;8.50;118.99
65559;DHT22;52203;51.998;5.140;2023-05-10T03:41:25;8.49;118.99
65559;DHT22;52203;51.998;5.140;2023-05-10T03:43:51;8.49;118.99
65559;DHT22;52203;51.998;5.140;2023-05-10T03:46:16;8.49;118.99
65559;DHT22;52203;51.998;5.140;2023-05-10T03:48:42;8.50;118.99
65559;DHT22;52203;51.998;5.140;2023-05-10T03:51:07;8.50;118.99
65559;DHT22;52203;51.998;5.140;2023-05-10T03:53:33;8.50;118.99
65559;DHT22;52203;51.998;5.140;2023-05-10T03:55:59;8.52;118.99
65559;DHT22;52203;51.998;5.140;2023-05-10T03:58:24;8.52;118.99
65559;DHT22;52203;51.998;5.140;2023-05-10T04:00:51;8.52;118.99
65559;DHT22;52203;51.998;5.140;2023-05-10T04:03:16;8.53;118.99
65559;DHT22;52203;51.998;5.140;2023-05-10T04:05:42;8.55;118.99
65559;DHT22;52203;51.998;5.140;2023-05-10T04:08:08;8.56;118.99
65559;DHT22;52203;51.998;5.140;2023-05-10T04:10:34;8.55;118.99
65559;DHT22;52203;51.998;5.140;2023-05-10T04:12:59;8.57;118.99
65559;DHT22;52203;51.998;5.140;2023-05-10T04:15:25;8.58;118.99
65559;DHT22;52203;51.998;5.140;2023-05-10T04:17:51;8.58;118.99
65559;DHT22;52203;51.998;5.140;2023-05-10T04:20:16;8.58;118.99
65559;DHT22;52203;51.998;5.140;2023-05-10T04:22:42;8.60;118.99
65559;DHT22;52203;51.998;5.140;2023-05-10T04:25:08;8.59;118.99
65559;DHT22;52203;51.998;5.140;2023-05-10T04:27:34;8.61;118.99
65559;DHT22;52203;51.998;5.140;2023-05-10T04:29:59;8.61;118.99
65559;DHT22;52203;51.998;5.140;2023-05-10T04:32:25;8.62;118.99
65559;DHT22;52203;51.998;5.140;2023-05-10T04:34:50;8.64;118.99
65559;DHT22;52203;51.998;5.140;2023-05-10T04:37:16;8.65;118.99
65559;DHT22;52203;51.998;5.140;2023-05-10T04:39:42;8.65;118.99
65559;DHT22;52203;51.998;5.140;2023-05-10T04:42:08;8.67;118.99
65559;DHT22;52203;51.998;5.140;2023-05-10T04:44:33;8.68;118.99
65559;DHT22;52203;51.998;5.140;2023-05-10T04:46:59;8.70;118.99
65559;DHT22;52203;51.998;5.140;2023-05-10T04:49:24;8.71;118.99
65559;DHT22;52203;51.998;5.140;2023-05-10T04:51:50;8.70;118.99
65559;DHT22;52203;51.998;5.140;2023-05-10T04:54:15;8.71;118.99
65559;DHT22;52203;51.998;5.140;2023-05-10T04:56:41;8.72;118.99
65559;DHT22;52203;51.998;5.140;2023-05-10T04:59:06;8.75;118.99
65559;DHT22;52203;51.998;5.140;2023-05-10T05:01:32;8.72;118.99
65559;DHT22;52203;51.998;5.140;2023-05-10T05:03:57;8.72;118.99
65559;DHT22;52203;51.998;5.140;2023-05-10T05:06:23;8.73;118.99
65559;DHT22;52203;51.998;5.140;2023-05-10T05:08:50;8.73;118.99
65559;DHT22;52203;51.998;5.140;2023-05-10T05:11:16;8.73;118.99
65559;DHT22;52203;51.998;5.140;2023-05-10T05:13:42;8.75;118.99
65559;DHT22;52203;51.998;5.140;2023-05-10T05:16:07;8.73;118.99
65559;DHT22;52203;51.998;5.140;2023-05-10T05:18:33;8.75;118.99
65559;DHT22;52203;51.998;5.140;2023-05-10T05:20:59;8.75;118.99
65559;DHT22;52203;51.998;5.140;2023-05-10T05:23:24;8.76;118.99
65559;DHT22;52203;51.998;5.140;2023-05-10T05:25:51;8.77;118.99
65559;DHT22;52203;51.998;5.140;2023-05-10T05:28:18;8.77;118.99
65559;DHT22;52203;51.998;5.140;2023-05-10T05:30:43;8.77;118.99
65559;DHT22;52203;51.998;5.140;2023-05-10T05:33:09;8.78;118.99
65559;DHT22;52203;51.998;5.140;2023-05-10T05:35:34;8.78;118.99
65559;DHT22;52203;51.998;5.140;2023-05-10T05:38:00;8.79;118.99
65559;DHT22;52203;51.998;5.140;2023-05-10T05:40:25;8.79;118.99
65559;DHT22;52203;51.998;5.140;2023-05-10T05:42:51;8.79;118.99
65559;DHT22;52203;51.998;5.140;2023-05-10T05:45:16;8.78;118.99
65559;DHT22;52203;51.998;5.140;2023-05-10T05:47:42;8.77;118.99
65559;DHT22;52203;51.998;5.140;2023-05-10T05:50:08;8.76;118.99
65559;DHT22;52203;51.998;5.140;2023-05-10T05:52:34;8.74;118.99
65559;DHT22;52203;51.998;5.140;2023-05-10T05:55:01;8.65;118.99
65559;DHT22;52203;51.998;5.140;2023-05-10T05:57:26;8.67;118.99
65559;DHT22;52203;51.998;5.140;2023-05-10T05:59:52;8.65;118.99
65559;DHT22;52203;51.998;5.140;2023-05-10T06:02:17;8.66;118.99
65559;DHT22;52203;51.998;5.140;2023-05-10T06:04:43;8.67;118.99
65559;DHT22;52203;51.998;5.140;2023-05-10T06:07:08;8.70;118.99
65559;DHT22;52203;51.998;5.140;2023-05-10T06:09:34;8.72;118.99
65559;DHT22;52203;51.998;5.140;2023-05-10T06:11:59;8.68;118.99
65559;DHT22;52203;51.998;5.140;2023-05-10T06:14:25;8.70;118.99
65559;DHT22;52203;51.998;5.140;2023-05-10T06:16:50;8.65;118.99
65559;DHT22;52203;51.998;5.140;2023-05-10T06:19:16;8.65;118.99
65559;DHT22;52203;51.998;5.140;2023-05-10T06:21:41;8.70;118.99
65559;DHT22;52203;51.998;5.140;2023-05-10T06:24:07;8.76;118.99
65559;DHT22;52203;51.998;5.140;2023-05-10T06:26:33;8.82;118.99
65559;DHT22;52203;51.998;5.140;2023-05-10T06:28:58;8.93;118.99
65559;DHT22;52203;51.998;5.140;2023-05-10T06:31:24;9.03;118.99
65559;DHT22;52203;51.998;5.140;2023-05-10T06:33:49;9.08;118.99
65559;DHT22;52203;51.998;5.140;2023-05-10T06:36:15;9.12;118.99
65559;DHT22;52203;51.998;5.140;2023-05-10T06:38:40;9.16;118.99
65559;DHT22;52203;51.998;5.140;2023-05-10T06:41:06;9.17;118.99
65559;DHT22;52203;51.998;5.140;2023-05-10T06:43:31;9.19;118.99
65559;DHT22;52203;51.998;5.140;2023-05-10T06:45:57;9.27;118.99
65559;DHT22;52203;51.998;5.140;2023-05-10T06:48:23;9.37;118.99
65559;DHT22;52203;51.998;5.140;2023-05-10T06:50:48;9.40;118.99
65559;DHT22;52203;51.998;5.140;2023-05-10T06:53:14;9.44;118.99
65559;DHT22;52203;51.998;5.140;2023-05-10T06:55:40;9.37;118.99
65559;DHT22;52203;51.998;5.140;2023-05-10T06:58:06;9.42;118.99
65559;DHT22;52203;51.998;5.140;2023-05-10T07:00:31;9.41;118.99
65559;DHT22;52203;51.998;5.140;2023-05-10T07:02:57;9.45;118.99
65559;DHT22;52203;51.998;5.140;2023-05-10T07:05:23;9.44;118.99
65559;DHT22;52203;51.998;5.140;2023-05-10T07:07:49;9.37;118.99
65559;DHT22;52203;51.998;5.140;2023-05-10T07:10:15;9.41;118.99
65559;DHT22;52203;51.998;5.140;2023-05-10T07:12:40;9.51;118.99
65559;DHT22;52203;51.998;5.140;2023-05-10T07:15:06;9.68;118.99
65559;DHT22;52203;51.998;5.140;2023-05-10T07:17:32;9.86;118.99
65559;DHT22;52203;51.998;5.140;2023-05-10T07:19:58;10.04;118.99
65559;DHT22;52203;51.998;5.140;2023-05-10T07:22:25;10.14;118.99
65559;DHT22;52203;51.998;5.140;2023-05-10T07:24:50;10.21;118.99
65559;DHT22;52203;51.998;5.140;2023-05-10T07:27:16;10.11;118.99
65559;DHT22;52203;51.998;5.140;2023-05-10T07:29:41;10.08;118.99
65559;DHT22;52203;51.998;5.140;2023-05-10T07:32:07;10.13;118.99
65559;DHT22;52203;51.998;5.140;2023-05-10T07:34:33;10.03;118.99
65559;DHT22;52203;51.998;5.140;2023-05-10T07:36:59;10.10;118.99
65559;DHT22;52203;51.998;5.140;2023-05-10T07:39:25;10.08;118.99
65559;DHT22;52203;51.998;5.140;2023-05-10T07:41:51;10.06;118.99
65559;DHT22;52203;51.998;5.140;2023-05-10T07:44:16;9.99;118.99
65559;DHT22;52203;51.998;5.140;2023-05-10T07:46:44;9.99;118.99
65559;DHT22;52203;51.998;5.140;2023-05-10T07:49:10;9.92;118.99
65559;DHT22;52203;51.998;5.140;2023-05-10T07:51:35;9.94;118.99
65559;DHT22;52203;51.998;5.140;2023-05-10T07:54:01;9.90;118.99
65559;DHT22;52203;51.998;5.140;2023-05-10T07:56:29;9.93;118.99
65559;DHT22;52203;51.998;5.140;2023-05-10T07:58:59;9.91;118.99
65559;DHT22;52203;51.998;5.140;2023-05-10T08:01:25;9.95;118.99
65559;DHT22;52203;51.998;5.140;2023-05-10T08:03:51;9.93;118.99
65559;DHT22;52203;51.998;5.140;2023-05-10T08:06:18;9.95;118.99
65559;DHT22;52203;51.998;5.140;2023-05-10T08:08:46;10.00;118.99
65559;DHT22;52203;51.998;5.140;2023-05-10T08:11:17;10.06;118.99
65559;DHT22;52203;51.998;5.140;2023-05-10T08:13:44;10.12;118.99
65559;DHT22;52203;51.998;5.140;2023-05-10T08:16:10;10.21;118.99
65559;DHT22;52203;51.998;5.140;2023-05-10T08:18:36;10.29;118.99
65559;DHT22;52203;51.998;5.140;2023-05-10T08:21:01;10.36;118.99
65559;DHT22;52203;51.998;5.140;2023-05-10T08:23:27;10.38;118.99
65559;DHT22;52203;51.998;5.140;2023-05-10T08:25:52;10.42;118.99
65559;DHT22;52203;51.998;5.140;2023-05-10T08:28:18;10.38;118.99
65559;DHT22;52203;51.998;5.140;2023-05-10T08:30:43;10.41;118.99
65559;DHT22;52203;51.998;5.140;2023-05-10T08:33:09;10.34;118.99
65559;DHT22;52203;51.998;5.140;2023-05-10T08:35:35;10.23;118.99
65559;DHT22;52203;51.998;5.140;2023-05-10T08:38:00;10.24;118.99
65559;DHT22;52203;51.998;5.140;2023-05-10T08:40:26;10.20;118.99
65559;DHT22;52203;51.998;5.140;2023-05-10T08:43:09;10.13;118.99
65559;DHT22;52203;51.998;5.140;2023-05-10T08:45:40;10.05;118.99
65559;DHT22;52203;51.998;5.140;2023-05-10T08:48:08;10.04;118.99
65559;DHT22;52203;51.998;5.140;2023-05-10T08:50:36;10.10;118.99
65559;DHT22;52203;51.998;5.140;2023-05-10T08:53:05;10.19;118.99
65559;DHT22;52203;51.998;5.140;2023-05-10T08:55:32;10.27;118.99
65559;DHT22;52203;51.998;5.140;2023-05-10T08:57:59;10.35;118.99
65559;DHT22;52203;51.998;5.140;2023-05-10T09:00:25;10.43;118.99
65559;DHT22;52203;51.998;5.140;2023-05-10T09:02:51;10.46;118.99
65559;DHT22;52203;51.998;5.140;2023-05-10T09:05:17;10.56;118.99
65559;DHT22;52203;51.998;5.140;2023-05-10T09:07:43;10.60;118.99
65559;DHT22;52203;51.998;5.140;2023-05-10T09:10:11;10.56;118.99
65559;DHT22;52203;51.998;5.140;2023-05-10T09:12:37;10.60;118.99
65559;DHT22;52203;51.998;5.140;2023-05-10T09:15:03;10.56;118.99
65559;DHT22;52203;51.998;5.140;2023-05-10T09:17:29;10.58;118.99
65559;DHT22;52203;51.998;5.140;2023-05-10T09:20:04;10.52;118.99
65559;DHT22;52203;51.998;5.140;2023-05-10T09:22:31;10.51;118.99
65559;DHT22;52203;51.998;5.140;2023-05-10T09:25:09;10.51;118.99
65559;DHT22;52203;51.998;5.140;2023-05-10T09:27:40;10.45;118.99
65559;DHT22;52203;51.998;5.140;2023-05-10T09:30:07;10.49;118.99
65559;DHT22;52203;51.998;5.140;2023-05-10T09:32:40;10.57;118.99
65559;DHT22;52203;51.998;5.140;2023-05-10T09:35:09;10.68;118.99
65559;DHT22;52203;51.998;5.140;2023-05-10T09:37:35;10.81;118.99
65559;DHT22;52203;51.998;5.140;2023-05-10T09:40:04;10.90;118.99
65559;DHT22;52203;51.998;5.140;2023-05-10T09:42:30;11.00;118.99
65559;DHT22;52203;51.998;5.140;2023-05-10T09:45:01;11.05;118.99
65559;DHT22;52203;51.998;5.140;2023-05-10T09:47:26;11.11;118.99
65559;DHT22;52203;51.998;5.140;2023-05-10T09:49:53;11.16;118.99
65559;DHT22;52203;51.998;5.140;2023-05-10T09:52:20;11.17;118.99
65559;DHT22;52203;51.998;5.140;2023-05-10T09:54:53;11.15;118.99
65559;DHT22;52203;51.998;5.140;2023-05-10T09:57:23;11.10;118.99
65559;DHT22;52203;51.998;5.140;2023-05-10T09:59:49;11.02;118.99
65559;DHT22;52203;51.998;5.140;2023-05-10T10:02:16;11.02;118.99
65559;DHT22;52203;51.998;5.140;2023-05-10T10:04:42;11.02;118.99
65559;DHT22;52203;51.998;5.140;2023-05-10T10:07:08;11.04;118.99
65559;DHT22;52203;51.998;5.140;2023-05-10T10:09:34;11.12;118.99
65559;DHT22;52203;51.998;5.140;2023-05-10T10:12:03;11.22;118.99
65559;DHT22;52203;51.998;5.140;2023-05-10T10:14:30;11.29;118.99
65559;DHT22;52203;51.998;5.140;2023-05-10T10:16:56;11.33;118.99
65559;DHT22;52203;51.998;5.140;2023-05-10T10:19:21;11.37;118.99
65559;DHT22;52203;51.998;5.140;2023-05-10T10:21:49;11.37;118.99
65559;DHT22;52203;51.998;5.140;2023-05-10T10:24:15;11.38;118.99
65559;DHT22;52203;51.998;5.140;2023-05-10T10:26:41;11.44;118.99
65559;DHT22;52203;51.998;5.140;2023-05-10T10:29:28;11.52;118.99
65559;DHT22;52203;51.998;5.140;2023-05-10T10:32:22;11.60;118.99
65559;DHT22;52203;51.998;5.140;2023-05-10T10:34:49;11.90;118.99
65559;DHT22;52203;51.998;5.140;2023-05-10T10:37:15;12.26;118.99
65559;DHT22;52203;51.998;5.140;2023-05-10T10:39:41;12.66;118.99
65559;DHT22;52203;51.998;5.140;2023-05-10T10:42:06;12.96;118.99
65559;DHT22;52203;51.998;5.140;2023-05-10T10:52:25;13.26;118.99
65559;DHT22;52203;51.998;5.140;2023-05-10T10:55:14;13.09;118.99
65559;DHT22;52203;51.998;5.140;2023-05-10T10:57:52;12.90;118.99
65559;DHT22;52203;51.998;5.140;2023-05-10T11:03:11;12.65;118.99
65559;DHT22;52203;51.998;5.140;2023-05-10T11:05:48;12.52;118.99
65559;DHT22;52203;51.998;5.140;2023-05-10T11:08:30;12.47;118.99
65559;DHT22;52203;51.998;5.140;2023-05-10T11:13:32;12.49;118.99
65559;DHT22;52203;51.998;5.140;2023-05-10T11:15:58;12.61;118.99
65559;DHT22;52203;51.998;5.140;2023-05-10T11:18:25;12.75;118.99
65559;DHT22;52203;51.998;5.140;2023-05-10T11:20:55;12.87;118.99
65559;DHT22;52203;51.998;5.140;2023-05-10T11:23:22;12.99;118.99
65559;DHT22;52203;51.998;5.140;2023-05-10T11:25:48;13.12;118.99
65559;DHT22;52203;51.998;5.140;2023-05-10T11:28:17;13.26;118.99
65559;DHT22;52203;51.998;5.140;2023-05-10T11:30:44;13.31;118.99
65559;DHT22;52203;51.998;5.140;2023-05-10T11:33:15;13.37;118.99
65559;DHT22;52203;51.998;5.140;2023-05-10T11:35:41;13.33;118.99
65559;DHT22;52203;51.998;5.140;2023-05-10T11:38:10;13.26;118.99
65559;DHT22;52203;51.998;5.140;2023-05-10T11:40:37;13.18;118.99
65559;DHT22;52203;51.998;5.140;2023-05-10T11:43:03;13.12;118.99
65559;DHT22;52203;51.998;5.140;2023-05-10T11:45:31;13.01;118.99
65559;DHT22;52203;51.998;5.140;2023-05-10T11:47:58;12.93;118.99
65559;DHT22;52203;51.998;5.140;2023-05-10T11:50:24;12.88;118.99
65559;DHT22;52203;51.998;5.140;2023-05-10T11:52:56;12.85;118.99
65559;DHT22;52203;51.998;5.140;2023-05-10T11:55:22;12.76;118.99
65559;DHT22;52203;51.998;5.140;2023-05-10T11:57:52;12.63;118.99
65559;DHT22;52203;51.998;5.140;2023-05-10T12:00:18;12.52;118.99
65559;DHT22;52203;51.998;5.140;2023-05-10T12:02:43;12.46;118.99
65559;DHT22;52203;51.998;5.140;2023-05-10T12:05:10;12.30;118.99
65559;DHT22;52203;51.998;5.140;2023-05-10T12:07:35;12.23;118.99
65559;DHT22;52203;51.998;5.140;2023-05-10T12:10:08;12.17;118.99
65559;DHT22;52203;51.998;5.140;2023-05-10T12:12:38;12.11;118.99
65559;DHT22;52203;51.998;5.140;2023-05-10T12:15:05;11.98;118.99
65559;DHT22;52203;51.998;5.140;2023-05-10T12:17:31;11.92;118.99
65559;DHT22;52203;51.998;5.140;2023-05-10T12:20:19;11.85;118.99
65559;DHT22;52203;51.998;5.140;2023-05-10T12:22:47;11.79;118.99
65559;DHT22;52203;51.998;5.140;2023-05-10T12:25:13;11.76;118.99
65559;DHT22;52203;51.998;5.140;2023-05-10T12:27:38;11.74;118.99
65559;DHT22;52203;51.998;5.140;2023-05-10T12:30:04;11.72;118.99
65559;DHT22;52203;51.998;5.140;2023-05-10T12:32:40;11.74;118.99
65559;DHT22;52203;51.998;5.140;2023-05-10T12:35:06;11.75;118.99
65559;DHT22;52203;51.998;5.140;2023-05-10T12:37:32;11.81;118.99
65559;DHT22;52203;51.998;5.140;2023-05-10T12:40:01;11.81;118.99
65559;DHT22;52203;51.998;5.140;2023-05-10T12:42:28;11.82;118.99
65559;DHT22;52203;51.998;5.140;2023-05-10T12:44:57;11.79;118.99
65559;DHT22;52203;51.998;5.140;2023-05-10T12:47:23;11.79;118.99
65559;DHT22;52203;51.998;5.140;2023-05-10T12:49:48;11.75;118.99
65559;DHT22;52203;51.998;5.140;2023-05-10T12:52:14;11.71;118.99
65559;DHT22;52203;51.998;5.140;2023-05-10T12:54:39;11.70;118.99
65559;DHT22;52203;51.998;5.140;2023-05-10T12:57:05;11.70;118.99
65559;DHT22;52203;51.998;5.140;2023-05-10T12:59:30;11.63;118.99
65559;DHT22;52203;51.998;5.140;2023-05-10T13:01:57;11.49;118.99
65559;DHT22;52203;51.998;5.140;2023-05-10T13:04:22;11.52;118.99
65559;DHT22;52203;51.998;5.140;2023-05-10T13:06:48;11.46;118.99
65559;DHT22;52203;51.998;5.140;2023-05-10T13:09:14;11.38;118.99
65559;DHT22;52203;51.998;5.140;2023-05-10T13:11:39;11.27;118.99
65559;DHT22;52203;51.998;5.140;2023-05-10T13:14:05;11.18;118.99
65559;DHT22;52203;51.998;5.140;2023-05-10T13:16:31;11.10;118.99
65559;DHT22;52203;51.998;5.140;2023-05-10T13:18:56;11.03;118.99
65559;DHT22;52203;51.998;5.140;2023-05-10T13:21:22;10.98;118.99
65559;DHT22;52203;51.998;5.140;2023-05-10T13:23:49;10.93;118.99
65559;DHT22;52203;51.998;5.140;2023-05-10T13:26:15;10.88;118.99
65559;DHT22;52203;51.998;5.140;2023-05-10T13:28:40;10.84;118.99
65559;DHT22;52203;51.998;5.140;2023-05-10T13:31:06;10.81;118.99
65559;DHT22;52203;51.998;5.140;2023-05-10T13:33:32;10.80;118.99
65559;DHT22;52203;51.998;5.140;2023-05-10T13:35:57;10.77;118.99
65559;DHT22;52203;51.998;5.140;2023-05-10T13:38:23;10.74;118.99
65559;DHT22;52203;51.998;5.140;2023-05-10T13:40:48;10.72;118.99
65559;DHT22;52203;51.998;5.140;2023-05-10T13:43:18;10.70;118.99
65559;DHT22;52203;51.998;5.140;2023-05-10T13:45:43;10.67;118.99
65559;DHT22;52203;51.998;5.140;2023-05-10T13:48:09;10.66;118.99
65559;DHT22;52203;51.998;5.140;2023-05-10T13:50:34;10.60;118.99
65559;DHT22;52203;51.998;5.140;2023-05-10T13:53:00;10.62;118.99
65559;DHT22;52203;51.998;5.140;2023-05-10T13:55:25;10.62;118.99
65559;DHT22;52203;51.998;5.140;2023-05-10T13:57:51;10.58;118.99
65559;DHT22;52203;51.998;5.140;2023-05-10T14:00:17;10.63;118.99
65559;DHT22;52203;51.998;5.140;2023-05-10T14:02:42;10.66;118.99
65559;DHT22;52203;51.998;5.140;2023-05-10T14:05:08;10.70;118.99
65559;DHT22;52203;51.998;5.140;2023-05-10T14:07:34;10.74;118.99
65559;DHT22;52203;51.998;5.140;2023-05-10T14:10:00;10.79;118.99
65559;DHT22;52203;51.998;5.140;2023-05-10T14:12:25;10.84;118.99
65559;DHT22;52203;51.998;5.140;2023-05-10T14:14:51;10.87;118.99
65559;DHT22;52203;51.998;5.140;2023-05-10T14:17:17;10.92;118.99
65559;DHT22;52203;51.998;5.140;2023-05-10T14:19:43;10.93;118.99
65559;DHT22;52203;51.998;5.140;2023-05-10T14:22:08;10.96;118.99
65559;DHT22;52203;51.998;5.140;2023-05-10T14:24:34;10.96;118.99
65559;DHT22;52203;51.998;5.140;2023-05-10T14:26:59;10.98;118.99
65559;DHT22;52203;51.998;5.140;2023-05-10T14:29:25;10.99;118.99
65559;DHT22;52203;51.998;5.140;2023-05-10T14:31:51;11.00;118.99
65559;DHT22;52203;51.998;5.140;2023-05-10T14:34:16;10.99;118.99
65559;DHT22;52203;51.998;5.140;2023-05-10T14:36:42;10.95;118.99
65559;DHT22;52203;51.998;5.140;2023-05-10T14:39:08;10.87;118.99
65559;DHT22;52203;51.998;5.140;2023-05-10T14:41:35;10.85;118.99
65559;DHT22;52203;51.998;5.140;2023-05-10T14:44:01;10.86;118.99
65559;DHT22;52203;51.998;5.140;2023-05-10T14:46:28;10.86;118.99
65559;DHT22;52203;51.998;5.140;2023-05-10T14:48:55;10.85;118.99
65559;DHT22;52203;51.998;5.140;2023-05-10T14:51:20;10.85;118.99
65559;DHT22;52203;51.998;5.140;2023-05-10T14:53:48;10.89;118.99
65559;DHT22;52203;51.998;5.140;2023-05-10T14:56:14;10.90;118.99
65559;DHT22;52203;51.998;5.140;2023-05-10T14:58:40;10.89;118.99
65559;DHT22;52203;51.998;5.140;2023-05-10T15:01:05;10.95;118.99
65559;DHT22;52203;51.998;5.140;2023-05-10T15:03:31;10.96;118.99
65559;DHT22;52203;51.998;5.140;2023-05-10T15:05:56;10.98;118.99
65559;DHT22;52203;51.998;5.140;2023-05-10T15:08:23;11.04;118.99
65559;DHT22;52203;51.998;5.140;2023-05-10T15:10:50;11.08;118.99
65559;DHT22;52203;51.998;5.140;2023-05-10T15:13:16;11.13;118.99
65559;DHT22;52203;51.998;5.140;2023-05-10T15:15:41;11.16;118.99
65559;DHT22;52203;51.998;5.140;2023-05-10T15:18:08;11.22;118.99
65559;DHT22;52203;51.998;5.140;2023-05-10T15:20:34;11.28;118.99
65559;DHT22;52203;51.998;5.140;2023-05-10T15:23:00;11.31;118.99
65559;DHT22;52203;51.998;5.140;2023-05-10T15:25:26;11.39;118.99
65559;DHT22;52203;51.998;5.140;2023-05-10T15:27:51;11.46;118.99
65559;DHT22;52203;51.998;5.140;2023-05-10T15:30:17;11.51;118.99
65559;DHT22;52203;51.998;5.140;2023-05-10T15:32:42;11.52;118.99
65559;DHT22;52203;51.998;5.140;2023-05-10T15:35:08;11.57;118.99
65559;DHT22;52203;51.998;5.140;2023-05-10T15:37:35;11.55;118.99
65559;DHT22;52203;51.998;5.140;2023-05-10T15:40:01;11.57;118.99
65559;DHT22;52203;51.998;5.140;2023-05-10T15:42:31;11.59;118.99
65559;DHT22;52203;51.998;5.140;2023-05-10T15:44:58;11.61;118.99
65559;DHT22;52203;51.998;5.140;2023-05-10T15:47:25;11.64;118.99
65559;DHT22;52203;51.998;5.140;2023-05-10T15:49:51;11.70;118.99
65559;DHT22;52203;51.998;5.140;2023-05-10T15:52:16;11.78;118.99
65559;DHT22;52203;51.998;5.140;2023-05-10T15:54:43;11.84;118.99
65559;DHT22;52203;51.998;5.140;2023-05-10T15:57:09;11.91;118.99